Alex, Minnesota
Current Conditions -  °F | °C
As of 7:08 AM on Wednesday 26 Nov 2014 (Local Time) from KAXN Reporting Station
Light Snow Light Snow  
Wind Chill: -13°   Ceiling: 4100
Heat Index: -7°   Visibility: 2.5mi
Dew Point: -9°   Wind: 12mph
Humidity: 85%   Direction: 10°N
Pressure: 30.12"   Gusts: NA
Location:  45.8551°N, 95.4333°W
Report Text: KAXN 261308Z AUTO 01010KT 2 1/2SM -SN BR FEW009 OVC041 M07/M09 A3012 RMK AO2 P0000 T10671089
Loading
Personal Weather Stations






























Interactive Weather Map New forecast layout! Learn more

10-Day Weather Forecast

Advertisements
Track Severe Weather on mobile